Terminal Aerodrome Forecast
Issued by NWS

Home | Current Version | Previous Version | Text Only | Print | Product List | Glossary On
Versions: 1 2 3 4 5 6 7 8 9 10 11 12 13 14 15
000
FTUS44 KEPZ 202048 AAA
TAFDMN
TAF AMD
KDMN 202048Z 2021/2118 26025G35KT P6SM VCSH SCT040 BKN060
     FM210100 24022G32KT 6SM -SHRA BKN030 BKN090 OVC150
     FM210300 24018G28KT 6SM -SHRA SCT015 BKN030 BKN080
     FM211000 27025G35KT 5SM -SHRA SCT015 BKN040 BKN080=

USA.gov is the U.S. government's official web portal to all federal, state and local government web resources and services.